Terminal Aerodrome Forecast
Issued by NWS

Current Version | Previous Version | Graphics & Text | Print | Product List | Glossary Off
Versions: 1 2 3 4 5 6 7 8 9 10 11 12 13 14 15 16 17 18 19

000
FTUS41 KPBZ 021700
TAFHLG
TAF
KHLG 021727Z 0218/0318 28012KT P6SM BKN035
      TEMPO 0218/0220 BKN025
     FM022300 29006KT P6SM BKN250
     FM030800 VRB03KT P6SM OVC120
     FM031500 13007KT 6SM -FZRASN OVC015=

USA.gov is the U.S. government's official web portal to all federal, state and local government web resources and services.